Winnetka, California
Current Conditions -  °F | °C
As of 12:51 PM on Tuesday 27 Jan 2015 (Local Time) from KVNY Reporting Station
Scattered Clouds Scattered Clouds  
Wind Chill: 67°   Ceiling: Unl
Heat Index: 67°   Visibility: 10mi
Dew Point: 46°   Wind: 0mph
Humidity: 47%   Direction: NA
Pressure: 30.15"   Gusts: NA
Location:  34.21°N, 118.57°W
Report Text: KVNY 272051Z 00000KT 10SM SCT055 19/08 A3015 RMK AO2 SLP206 T01940078 58017
Loading
Personal Weather Stations






























Interactive Weather Map New forecast layout! Learn more

10-Day Weather Forecast

Advertisements
Track Severe Weather on mobile